Time;durP1;ratioP1;P1;durP2;ratioP2;P2;SDS_P1;SDS_P2;PMS_P1;PMS_P2;Temp;Humidity;BMP_temperature;BMP_pressure;BME280_temperature;BME280_humidity;BME280_pressure;Samples;Min_cycle;Max_cycle;Signal;HPM_P1;HPM_P2
2023/08/24 00:01:44;;;;;;;0.13;0.10;;;;;;;19.02;68.87;97809.59;5113167;28;20510;-68
2023/08/24 00:04:13;;;;;;;0.30;0.30;;;;;;;19.05;68.49;97814.53;5099868;28;20044;-68
2023/08/24 00:06:41;;;;;;;0.17;0.17;;;;;;;18.98;68.82;97821.97;5111254;28;20088;-67
2023/08/24 00:09:09;;;;;;;0.10;0.10;;;;;;;18.85;69.09;97811.44;5120916;28;20328;-68
2023/08/24 00:11:37;;;;;;;0.10;0.10;;;;;;;18.90;68.95;97808.81;5119008;28;20047;-67
2023/08/24 00:14:04;;;;;;;0.17;0.17;;;;;;;18.78;69.33;97810.78;5112016;28;20040;-68
2023/08/24 00:16:32;;;;;;;0.20;0.20;;;;;;;18.86;68.89;97804.97;5122907;28;20043;-67
2023/08/24 00:19:00;;;;;;;0.13;0.13;;;;;;;18.82;69.15;97811.91;5110397;28;20035;-68
2023/08/24 00:21:29;;;;;;;0.13;0.13;;;;;;;18.63;69.64;97806.72;5109864;28;20422;-68
2023/08/24 00:23:56;;;;;;;1.00;0.20;;;;;;;18.68;69.60;97801.41;5114732;28;20055;-67
2023/08/24 00:26:24;;;;;;;0.20;0.20;;;;;;;18.57;70.12;97798.72;5108797;28;20049;-68
2023/08/24 00:28:52;;;;;;;0.15;0.15;;;;;;;18.69;69.69;97802.22;5101692;28;20067;-69
2023/08/24 00:31:20;;;;;;;0.22;0.22;;;;;;;18.56;70.69;97795.19;5095773;28;20047;-68
2023/08/24 00:33:50;;;;;;;0.20;0.20;;;;;;;18.51;70.62;97796.97;5114931;28;20040;-68
2023/08/24 00:36:18;;;;;;;0.13;0.13;;;;;;;18.35;71.46;97801.25;5106531;27;20391;-68
2023/08/24 00:38:50;;;;;;;0.10;0.10;;;;;;;18.32;71.64;97791.72;5091276;28;20039;-68
2023/08/24 00:41:18;;;;;;;0.13;0.13;;;;;;;18.36;71.23;97791.25;5125295;27;20589;-68
2023/08/24 00:43:46;;;;;;;0.30;0.30;;;;;;;18.33;70.98;97797.97;5126869;27;20502;-68
2023/08/24 00:46:14;;;;;;;0.10;0.10;;;;;;;18.42;70.44;97795.69;5112483;27;20050;-68
2023/08/24 00:48:42;;;;;;;0.13;0.13;;;;;;;18.34;71.10;97803.13;5103242;27;20027;-68
2023/08/24 00:51:11;;;;;;;0.30;0.30;;;;;;;18.31;71.22;97797.38;5106256;27;20074;-67
2023/08/24 00:53:39;;;;;;;0.13;0.13;;;;;;;18.22;71.72;97802.34;5088299;28;20599;-68
2023/08/24 00:56:08;;;;;;;0.20;0.20;;;;;;;18.05;72.28;97806.84;5112550;28;20047;-68
2023/08/24 00:58:36;;;;;;;0.13;0.13;;;;;;;17.97;72.64;97799.06;5093466;27;20039;-67
2023/08/24 01:01:04;;;;;;;0.10;0.10;;;;;;;18.07;71.69;97798.47;5097924;28;20127;-66
2023/08/24 01:03:33;;;;;;;0.20;0.20;;;;;;;17.89;72.40;97805.66;5113403;27;20031;-69
2023/08/24 01:06:00;;;;;;;0.38;0.35;;;;;;;17.96;72.21;97809.06;5096649;28;20449;-68
2023/08/24 01:08:28;;;;;;;0.17;0.17;;;;;;;18.00;72.05;97814.00;5096600;28;20032;-68
2023/08/24 01:11:00;;;;;;;0.10;0.10;;;;;;;17.83;71.95;97814.72;5129393;27;20039;-68
2023/08/24 01:13:34;;;;;;;0.13;0.13;;;;;;;17.57;73.46;97815.13;5083846;28;20044;-68
2023/08/24 01:16:05;;;;;;;0.10;0.10;;;;;;;17.27;75.07;97803.59;5090414;28;20066;-69
2023/08/24 01:18:35;;;;;;;0.20;0.20;;;;;;;17.44;74.74;97805.38;5097205;27;20126;-69
2023/08/24 01:21:04;;;;;;;0.17;0.15;;;;;;;17.68;73.41;97808.94;5106403;27;20706;-69
2023/08/24 01:23:43;;;;;;;0.10;0.10;;;;;;;17.75;73.17;97806.16;5117476;27;20104;-69
2023/08/24 01:26:14;;;;;;;0.10;0.10;;;;;;;17.69;73.38;97807.91;5121364;27;20035;-68
2023/08/24 01:28:44;;;;;;;0.17;0.17;;;;;;;17.73;73.24;97809.09;5114009;28;20050;-68
2023/08/24 01:31:12;;;;;;;0.20;0.15;;;;;;;17.73;73.24;97808.25;5094700;28;20051;-68
2023/08/24 01:33:40;;;;;;;0.20;0.20;;;;;;;17.68;73.38;97803.56;5113841;28;20457;-68
2023/08/24 01:36:09;;;;;;;0.15;0.15;;;;;;;17.70;73.85;97806.03;5115325;27;20050;-68
2023/08/24 01:38:37;;;;;;;0.20;0.17;;;;;;;17.75;73.22;97801.56;5088065;28;20039;-68
2023/08/24 01:41:11;;;;;;;0.13;0.13;;;;;;;17.77;73.17;97794.03;5087247;28;20556;-68
2023/08/24 01:43:40;;;;;;;0.15;0.15;;;;;;;17.57;73.76;97802.47;5095500;28;20086;-68
2023/08/24 01:46:12;;;;;;;0.20;0.20;;;;;;;17.70;73.26;97798.75;5124481;27;20544;-68
2023/08/24 01:48:41;;;;;;;0.20;0.20;;;;;;;17.69;73.00;97801.69;5100194;28;20046;-67
2023/08/24 01:51:10;;;;;;;0.20;0.13;;;;;;;17.59;73.18;97791.44;5107201;28;20101;-68
2023/08/24 01:53:39;;;;;;;0.17;0.17;;;;;;;17.72;72.95;97795.81;5116603;27;20455;-67
2023/08/24 01:56:11;;;;;;;0.13;0.13;;;;;;;17.59;73.21;97791.44;5111086;28;20070;-67
2023/08/24 01:58:39;;;;;;;0.10;0.10;;;;;;;17.46;73.81;97794.34;5102977;27;20425;-67
2023/08/24 02:01:07;;;;;;;0.13;0.13;;;;;;;17.37;74.04;97782.25;5097159;28;20187;-67
2023/08/24 02:03:35;;;;;;;0.20;0.20;;;;;;;17.51;73.49;97775.59;5093052;28;20035;-67
2023/08/24 02:06:04;;;;;;;0.20;0.20;;;;;;;17.60;73.30;97784.97;5112945;28;20426;-67
2023/08/24 02:08:32;;;;;;;0.10;0.10;;;;;;;17.71;72.64;97789.59;5103024;28;20043;-68
2023/08/24 02:11:00;;;;;;;0.20;0.20;;;;;;;17.63;73.00;97781.84;5097209;28;20048;-67
2023/08/24 02:13:28;;;;;;;0.25;0.25;;;;;;;17.54;73.17;97784.06;5108124;28;20123;-67
2023/08/24 02:16:03;;;;;;;0.08;0.08;;;;;;;17.56;73.18;97783.78;5100499;27;20104;-68
2023/08/24 02:18:31;;;;;;;0.13;0.13;;;;;;;17.37;73.74;97780.38;5103580;28;20039;-67
2023/08/24 02:20:59;;;;;;;0.13;0.13;;;;;;;17.45;73.61;97781.91;5119437;27;20127;-68
2023/08/24 02:23:27;;;;;;;0.13;0.13;;;;;;;17.44;73.69;97778.38;5108600;27;20043;-67
2023/08/24 02:25:54;;;;;;;0.20;0.20;;;;;;;17.44;73.74;97769.50;5122550;27;20129;-67
2023/08/24 02:28:22;;;;;;;0.20;0.20;;;;;;;17.45;73.67;97765.72;5091924;28;20048;-67
2023/08/24 02:30:50;;;;;;;0.15;0.15;;;;;;;17.56;73.03;97765.72;5092500;28;20509;-66
2023/08/24 02:33:19;;;;;;;0.32;0.15;;;;;;;17.55;73.01;97763.25;5094148;28;20406;-66
2023/08/24 02:35:48;;;;;;;0.10;0.10;;;;;;;17.56;72.96;97765.72;5115803;27;20082;-67
2023/08/24 02:38:15;;;;;;;0.10;0.10;;;;;;;17.46;73.15;97765.50;5121843;27;20050;-66
2023/08/24 02:40:43;;;;;;;0.20;0.20;;;;;;;17.46;73.22;97767.38;5119875;27;20535;-66
2023/08/24 02:43:11;;;;;;;0.20;0.20;;;;;;;17.40;73.41;97771.00;5094089;28;20043;-66
2023/08/24 02:45:38;;;;;;;0.10;0.10;;;;;;;17.35;73.57;97758.19;5120942;27;20652;-66
2023/08/24 02:48:06;;;;;;;0.20;0.20;;;;;;;17.34;73.47;97761.94;5107957;28;20065;-66
2023/08/24 02:50:36;;;;;;;0.20;0.20;;;;;;;17.27;73.71;97760.44;5109526;27;20061;-66
2023/08/24 02:53:04;;;;;;;0.10;0.10;;;;;;;17.32;73.48;97752.47;5100612;27;20430;-66
2023/08/24 02:55:33;;;;;;;0.30;0.30;;;;;;;17.31;73.72;97750.81;5100811;28;20039;-66
2023/08/24 02:58:00;;;;;;;0.03;0.03;;;;;;;17.28;73.34;97752.09;5080946;28;20043;-66
2023/08/24 03:00:28;;;;;;;0.22;0.22;;;;;;;17.23;73.43;97755.50;5087850;28;20044;-66
2023/08/24 03:02:56;;;;;;;0.13;0.13;;;;;;;17.25;73.43;97756.09;5110321;28;20123;-66
2023/08/24 03:05:23;;;;;;;0.30;0.30;;;;;;;17.20;73.36;97753.28;5097837;28;20100;-67
2023/08/24 03:07:53;;;;;;;0.20;0.20;;;;;;;17.22;73.20;97753.88;5090990;28;20105;-67
2023/08/24 03:10:21;;;;;;;0.25;0.25;;;;;;;17.21;73.34;97762.19;5099310;28;20035;-67
2023/08/24 03:12:49;;;;;;;0.25;0.25;;;;;;;17.18;73.33;97755.38;5092155;28;20075;-66
2023/08/24 03:15:17;;;;;;;0.15;0.15;;;;;;;17.11;73.57;97751.97;5119640;27;20054;-67
2023/08/24 03:17:45;;;;;;;0.22;0.22;;;;;;;17.06;73.75;97757.22;5092880;28;20075;-67
2023/08/24 03:20:13;;;;;;;0.22;0.22;;;;;;;17.10;73.58;97761.13;5090117;28;20044;-67
2023/08/24 03:22:41;;;;;;;0.13;0.13;;;;;;;17.06;73.68;97757.22;5106659;28;20067;-67
2023/08/24 03:25:10;;;;;;;0.13;0.13;;;;;;;17.11;73.72;97759.25;5115165;28;20048;-67
2023/08/24 03:27:39;;;;;;;0.25;0.25;;;;;;;17.00;73.82;97751.97;5091722;28;20069;-67
2023/08/24 03:30:08;;;;;;;0.05;0.05;;;;;;;16.78;74.24;97757.88;5088824;28;20039;-67
2023/08/24 03:32:36;;;;;;;0.20;0.20;;;;;;;16.61;74.53;97759.53;5085986;28;20046;-67
2023/08/24 03:35:04;;;;;;;0.15;0.15;;;;;;;16.58;74.84;97751.09;5116842;27;20042;-67
2023/08/24 03:37:31;;;;;;;0.20;0.20;;;;;;;16.58;74.88;97740.31;5117448;28;20039;-67
2023/08/24 03:39:59;;;;;;;0.20;0.20;;;;;;;16.62;74.52;97746.91;5097434;28;20122;-67
2023/08/24 03:42:28;;;;;;;0.13;0.13;;;;;;;16.51;75.00;97752.00;5088813;28;20043;-67
2023/08/24 03:44:56;;;;;;;0.25;0.25;;;;;;;16.51;75.01;97751.16;5091498;28;20062;-67
2023/08/24 03:47:23;;;;;;;0.15;0.13;;;;;;;16.55;74.97;97751.53;5099199;28;20138;-67
2023/08/24 03:49:51;;;;;;;0.10;0.10;;;;;;;16.58;74.88;97754.63;5096871;28;20050;-67
2023/08/24 03:52:19;;;;;;;0.10;0.10;;;;;;;16.65;74.53;97754.53;5114181;28;20123;-67
2023/08/24 03:54:46;;;;;;;0.05;0.05;;;;;;;16.62;74.67;97760.38;5114487;28;20035;-67
2023/08/24 03:57:15;;;;;;;0.20;0.20;;;;;;;16.54;75.19;97756.13;5108987;28;20114;-67
2023/08/24 03:59:44;;;;;;;0.20;0.20;;;;;;;16.53;75.57;97755.28;5117534;28;20039;-67
2023/08/24 04:02:12;;;;;;;0.20;0.20;;;;;;;16.53;75.26;97754.47;5102516;28;20048;-67
2023/08/24 04:04:40;;;;;;;0.15;0.15;;;;;;;16.67;74.92;97757.84;5100200;28;20078;-67
2023/08/24 04:07:07;;;;;;;0.20;0.20;;;;;;;16.62;74.90;97757.69;5088450;28;20067;-67
2023/08/24 04:09:35;;;;;;;0.17;0.17;;;;;;;16.69;74.77;97750.34;5111043;28;20093;-67
2023/08/24 04:12:04;;;;;;;0.20;0.20;;;;;;;16.56;75.28;97763.97;5105656;27;20047;-67
2023/08/24 04:14:31;;;;;;;0.25;0.25;;;;;;;16.72;74.84;97760.66;5106605;27;20078;-67
2023/08/24 04:17:00;;;;;;;0.22;0.22;;;;;;;16.75;74.68;97763.72;5100312;27;20048;-67
2023/08/24 04:19:28;;;;;;;0.10;0.10;;;;;;;16.87;74.15;97761.06;5105331;27;20117;-67
2023/08/24 04:21:56;;;;;;;0.25;0.25;;;;;;;16.84;74.14;97769.59;5101041;27;20131;-67
2023/08/24 04:24:25;;;;;;;0.08;0.08;;;;;;;16.92;73.60;97768.47;5123235;27;20059;-68
2023/08/24 04:26:52;;;;;;;0.30;0.20;;;;;;;16.60;75.02;97773.25;5120371;27;20052;-67
2023/08/24 04:29:20;;;;;;;0.20;0.20;;;;;;;16.63;75.00;97762.03;5122539;27;20059;-67
2023/08/24 04:31:48;;;;;;;0.20;0.20;;;;;;;16.63;74.98;97768.25;5122411;27;20047;-67
2023/08/24 04:34:17;;;;;;;0.17;0.15;;;;;;;16.85;74.14;97769.38;5120858;27;20394;-67
2023/08/24 04:36:45;;;;;;;0.22;0.22;;;;;;;16.88;74.12;97760.84;5122680;27;20122;-68
2023/08/24 04:39:12;;;;;;;0.10;0.10;;;;;;;16.77;74.70;97771.59;5121503;27;20067;-67
2023/08/24 04:41:40;;;;;;;0.15;0.15;;;;;;;16.92;74.29;97766.59;5121044;27;20043;-68
2023/08/24 04:44:08;;;;;;;0.20;0.20;;;;;;;16.84;74.16;97764.22;5123872;27;20043;-67
2023/08/24 04:46:36;;;;;;;0.10;0.10;;;;;;;16.82;74.32;97766.31;5118580;27;20045;-67
2023/08/24 04:49:04;;;;;;;0.22;0.22;;;;;;;16.90;74.14;97762.47;5122492;27;20043;-68
2023/08/24 04:51:33;;;;;;;0.30;0.30;;;;;;;16.84;73.87;97761.50;5119099;27;20118;-68
2023/08/24 04:54:01;;;;;;;0.20;0.20;;;;;;;16.76;74.12;97749.19;5122118;27;20043;-68
2023/08/24 04:56:28;;;;;;;0.13;0.13;;;;;;;16.83;73.96;97755.31;5119457;27;20052;-68
2023/08/24 04:58:57;;;;;;;0.10;0.10;;;;;;;16.68;74.34;97759.47;5121947;27;20059;-67
2023/08/24 05:01:25;;;;;;;0.30;0.30;;;;;;;16.56;74.93;97750.50;5121829;27;20051;-67
2023/08/24 05:03:53;;;;;;;0.20;0.20;;;;;;;16.42;76.17;97758.75;5123445;27;20054;-67
2023/08/24 05:06:21;;;;;;;0.13;0.13;;;;;;;16.53;75.70;97759.84;5121396;27;20047;-67
2023/08/24 05:08:50;;;;;;;0.10;0.10;;;;;;;16.83;74.39;97758.00;5123863;27;20050;-67
2023/08/24 05:11:19;;;;;;;0.20;0.20;;;;;;;16.78;74.69;97765.97;5120648;27;20055;-68
2023/08/24 05:13:46;;;;;;;0.20;0.20;;;;;;;16.82;74.77;97760.91;5123336;27;20043;-67
2023/08/24 05:16:14;;;;;;;0.13;0.13;;;;;;;16.81;74.74;97764.69;5121948;27;20047;-67
2023/08/24 05:18:42;;;;;;;0.25;0.25;;;;;;;16.79;74.96;97764.09;5121514;27;20094;-68
2023/08/24 05:21:10;;;;;;;0.22;0.22;;;;;;;16.83;74.75;97759.88;5121583;27;20039;-68
2023/08/24 05:23:37;;;;;;;0.08;0.08;;;;;;;16.74;75.17;97762.06;5122787;27;20039;-67
2023/08/24 05:26:07;;;;;;;0.10;0.10;;;;;;;16.86;74.57;97767.50;5120849;27;20051;-68
2023/08/24 05:28:34;;;;;;;0.08;0.08;;;;;;;17.01;74.29;97764.38;5123103;27;20431;-68
2023/08/24 05:31:02;;;;;;;0.20;0.20;;;;;;;16.87;74.60;97761.88;5123351;27;20071;-68
2023/08/24 05:33:30;;;;;;;0.13;0.13;;;;;;;16.80;75.14;97765.75;5116215;27;20047;-67
2023/08/24 05:35:59;;;;;;;0.25;0.25;;;;;;;16.99;74.11;97759.22;5121199;27;20047;-67
2023/08/24 05:38:26;;;;;;;0.20;0.20;;;;;;;17.12;73.68;97767.13;5117252;27;20049;-67
2023/08/24 05:40:54;;;;;;;0.32;0.30;;;;;;;17.19;73.33;97769.69;5118744;27;20671;-68
2023/08/24 05:43:23;;;;;;;0.15;0.15;;;;;;;17.23;73.30;97762.78;5120722;27;20483;-68
2023/08/24 05:45:51;;;;;;;0.13;0.13;;;;;;;17.32;73.00;97757.88;5117996;27;20043;-67
2023/08/24 05:48:19;;;;;;;0.32;0.17;;;;;;;17.38;73.20;97757.75;5120531;27;20047;-67
2023/08/24 05:50:47;;;;;;;0.22;0.22;;;;;;;17.41;72.69;97756.47;5120674;27;20659;-68
2023/08/24 05:53:15;;;;;;;0.22;0.22;;;;;;;17.47;72.52;97760.91;5116961;27;20409;-67
2023/08/24 05:55:43;;;;;;;0.10;0.10;;;;;;;17.48;72.66;97759.84;5121134;27;20036;-67
2023/08/24 05:58:10;;;;;;;0.17;0.17;;;;;;;17.59;72.42;97754.47;5118819;27;20047;-67
2023/08/24 06:00:39;;;;;;;0.15;0.15;;;;;;;17.66;72.03;97753.53;5121058;27;20114;-67
2023/08/24 06:03:07;;;;;;;0.13;0.13;;;;;;;17.74;72.05;97762.13;5119180;27;20043;-67
2023/08/24 06:05:36;;;;;;;0.20;0.20;;;;;;;17.80;71.49;97761.16;5121405;27;20678;-67
2023/08/24 06:08:04;;;;;;;0.15;0.15;;;;;;;17.86;71.71;97764.78;5119089;27;20044;-67
2023/08/24 06:10:32;;;;;;;0.03;0.03;;;;;;;17.82;71.35;97759.06;5119963;27;20045;-68
2023/08/24 06:13:01;;;;;;;0.03;0.03;;;;;;;17.91;71.46;97764.91;5119749;27;20052;-69
2023/08/24 06:15:29;;;;;;;0.10;0.10;;;;;;;17.96;71.31;97763.13;5119778;27;20066;-69
2023/08/24 06:17:59;;;;;;;0.20;0.20;;;;;;;17.90;71.62;97763.28;5117545;27;20047;-67
2023/08/24 06:20:27;;;;;;;0.15;0.15;;;;;;;17.91;71.71;97760.34;5119997;27;20043;-70
2023/08/24 06:22:55;;;;;;;0.15;0.15;;;;;;;17.95;71.78;97747.19;5121246;27;20042;-69
2023/08/24 06:25:23;;;;;;;0.13;0.13;;;;;;;18.02;71.63;97749.75;5120988;27;20122;-69
2023/08/24 06:27:50;;;;;;;0.20;0.20;;;;;;;18.13;71.71;97741.63;5116330;27;20398;-68
2023/08/24 06:30:19;;;;;;;0.20;0.20;;;;;;;18.22;71.53;97733.97;5100621;27;20051;-69
2023/08/24 06:32:47;;;;;;;0.20;0.20;;;;;;;18.26;71.37;97732.44;5118576;27;20122;-69
2023/08/24 06:35:16;;;;;;;0.13;0.13;;;;;;;18.31;71.53;97729.81;5120511;27;20038;-67
2023/08/24 06:37:44;;;;;;;0.22;0.20;;;;;;;18.45;71.42;97725.78;5121571;27;20413;-67
2023/08/24 06:40:13;;;;;;;0.17;0.17;;;;;;;18.50;70.82;97722.31;5119664;27;20123;-67
2023/08/24 06:42:40;;;;;;;0.15;0.15;;;;;;;18.63;71.09;97716.66;5115932;27;20062;-67
2023/08/24 06:45:10;;;;;;;0.13;0.13;;;;;;;18.77;70.59;97718.00;5118706;27;20037;-67
2023/08/24 06:47:38;;;;;;;0.20;0.20;;;;;;;18.91;70.23;97713.09;5117743;27;20071;-67
2023/08/24 06:50:07;;;;;;;0.20;0.20;;;;;;;19.01;69.74;97710.53;5120391;27;20101;-67
2023/08/24 06:52:36;;;;;;;0.10;0.10;;;;;;;19.27;69.32;97700.97;5118689;27;20044;-67
2023/08/24 06:55:04;;;;;;;0.17;0.17;;;;;;;19.41;68.80;97705.75;5115859;27;20046;-68
2023/08/24 06:57:32;;;;;;;0.17;0.17;;;;;;;19.57;68.36;97706.03;5118008;27;20047;-67
2023/08/24 07:00:00;;;;;;;0.13;0.13;;;;;;;19.69;67.92;97718.41;5121119;27;20069;-67
2023/08/24 07:02:28;;;;;;;0.20;0.20;;;;;;;19.82;67.49;97706.41;5117935;27;20039;-67
2023/08/24 07:04:57;;;;;;;0.13;0.13;;;;;;;19.84;67.17;97717.78;5119195;27;20039;-67
2023/08/24 07:07:25;;;;;;;0.13;0.13;;;;;;;19.98;66.79;97719.06;5118920;27;20031;-67
2023/08/24 07:09:54;;;;;;;0.20;0.20;;;;;;;20.07;66.96;97722.13;5120348;27;20120;-67
2023/08/24 07:12:22;;;;;;;0.10;0.10;;;;;;;20.21;66.52;97712.56;5119367;27;20126;-67
2023/08/24 07:14:49;;;;;;;0.15;0.15;;;;;;;20.38;66.40;97713.31;5119029;27;20089;-67
2023/08/24 07:17:18;;;;;;;0.13;0.13;;;;;;;20.54;65.26;97711.63;5120871;27;20040;-67
2023/08/24 07:19:45;;;;;;;0.10;0.10;;;;;;;20.70;64.02;97710.69;5120702;27;20047;-67
2023/08/24 07:22:13;;;;;;;0.03;0.03;;;;;;;20.97;64.05;97716.06;5117875;27;20066;-67
2023/08/24 07:24:41;;;;;;;0.13;0.13;;;;;;;21.17;62.72;97710.03;5119816;27;20550;-67
2023/08/24 07:27:14;;;;;;;0.10;0.10;;;;;;;21.30;62.90;97717.75;5121139;27;20096;-68
2023/08/24 07:29:42;;;;;;;0.10;0.10;;;;;;;21.46;62.59;97721.41;5117910;27;20070;-68
2023/08/24 07:32:10;;;;;;;0.10;0.10;;;;;;;21.66;61.25;97718.00;5119357;27;20028;-68
2023/08/24 07:34:38;;;;;;;0.03;0.03;;;;;;;21.77;61.58;97723.22;5120085;27;20052;-68
2023/08/24 07:37:05;;;;;;;0.10;0.10;;;;;;;21.99;60.08;97723.09;5115014;27;21128;-68
2023/08/24 07:39:33;;;;;;;0.15;0.13;;;;;;;22.09;58.79;97717.72;5117516;27;20040;-68
2023/08/24 07:42:01;;;;;;;0.10;0.10;;;;;;;22.26;57.82;97706.63;5119084;28;20042;-68
2023/08/24 07:44:30;;;;;;;0.10;0.10;;;;;;;22.46;56.77;97700.41;5121130;28;20410;-66
2023/08/24 07:46:58;;;;;;;0.13;0.13;;;;;;;22.64;57.24;97703.44;5119172;28;20043;-68
2023/08/24 07:49:25;;;;;;;0.10;0.10;;;;;;;22.80;55.49;97706.25;5113797;28;20419;-68
2023/08/24 07:51:53;;;;;;;0.10;0.10;;;;;;;22.94;54.80;97704.63;5114497;28;20065;-68
2023/08/24 07:54:21;;;;;;;0.10;0.10;;;;;;;23.09;54.56;97712.78;5117463;28;20100;-68
2023/08/24 07:56:49;;;;;;;0.15;0.15;;;;;;;23.23;52.37;97704.91;5115285;28;20047;-68
2023/08/24 07:59:16;;;;;;;0.00;0.00;;;;;;;23.35;52.45;97711.72;5117978;28;20031;-68
2023/08/24 08:01:45;;;;;;;0.08;0.08;;;;;;;23.48;51.34;97702.13;5117321;28;20720;-68
2023/08/24 08:04:13;;;;;;;0.10;0.10;;;;;;;23.62;51.75;97694.25;5118677;28;20739;-68
2023/08/24 08:06:41;;;;;;;0.03;0.03;;;;;;;23.69;50.34;97692.88;5120627;28;20474;-68
2023/08/24 08:09:08;;;;;;;0.03;0.03;;;;;;;23.86;50.45;97687.09;5116723;28;20043;-68
2023/08/24 08:11:37;;;;;;;0.10;0.10;;;;;;;23.97;51.34;97685.97;5119114;28;20465;-67
2023/08/24 08:14:04;;;;;;;0.10;0.10;;;;;;;24.02;50.34;97696.03;5119424;28;20047;-67
2023/08/24 08:16:32;;;;;;;0.00;0.00;;;;;;;24.09;49.56;97700.09;5117985;28;20652;-68
2023/08/24 08:19:01;;;;;;;0.00;0.00;;;;;;;24.18;49.59;97694.91;5119891;28;20043;-68
2023/08/24 08:21:30;;;;;;;0.00;0.00;;;;;;;24.26;49.37;97705.25;5115149;28;20386;-68
2023/08/24 08:23:57;;;;;;;0.10;0.10;;;;;;;24.37;49.05;97708.75;5120069;28;20115;-68
2023/08/24 08:26:25;;;;;;;0.03;0.03;;;;;;;24.36;48.34;97705.22;5117136;28;20035;-68
2023/08/24 08:28:53;;;;;;;0.10;0.10;;;;;;;24.47;49.46;97712.25;5120745;28;20039;-68
2023/08/24 08:31:20;;;;;;;0.10;0.10;;;;;;;24.52;49.46;97705.94;5114086;28;20053;-68
2023/08/24 08:33:49;;;;;;;0.17;0.17;;;;;;;24.53;49.70;97704.84;5112455;28;20040;-68
2023/08/24 08:36:18;;;;;;;0.08;0.08;;;;;;;24.50;49.09;97695.28;5114129;28;20501;-68
2023/08/24 08:38:45;;;;;;;0.10;0.10;;;;;;;24.47;49.14;97698.59;5119139;28;20040;-68
2023/08/24 08:41:13;;;;;;;0.10;0.03;;;;;;;24.62;49.04;97703.13;5119117;28;20104;-68
2023/08/24 08:43:42;;;;;;;0.00;0.00;;;;;;;24.79;48.56;97702.78;5118511;28;20046;-68
2023/08/24 08:46:11;;;;;;;0.10;0.10;;;;;;;24.85;48.69;97721.56;5116899;28;20040;-68
2023/08/24 08:48:41;;;;;;;0.08;0.08;;;;;;;24.76;48.78;97719.72;5118927;27;20049;-68
2023/08/24 08:51:09;;;;;;;0.00;0.00;;;;;;;24.83;48.27;97709.28;5121070;27;20050;-68
2023/08/24 08:53:38;;;;;;;0.03;0.03;;;;;;;24.98;49.00;97709.22;5120706;27;20047;-67
2023/08/24 08:56:06;;;;;;;0.10;0.10;;;;;;;24.97;48.30;97702.13;5120676;27;20039;-68
2023/08/24 08:58:36;;;;;;;0.10;0.10;;;;;;;25.02;48.36;97693.09;5120971;27;20127;-68
2023/08/24 09:01:05;;;;;;;0.10;0.10;;;;;;;25.29;48.39;97696.13;5119770;27;20042;-68
2023/08/24 09:03:33;;;;;;;0.00;0.00;;;;;;;25.54;47.44;97706.03;5121586;27;20086;-69
2023/08/24 09:06:01;;;;;;;0.00;0.00;;;;;;;25.45;47.71;97705.81;5118328;27;20035;-68
2023/08/24 09:08:29;;;;;;;0.03;0.03;;;;;;;25.47;47.46;97700.06;5122421;27;20409;-68
2023/08/24 09:10:59;;;;;;;0.05;0.05;;;;;;;25.45;47.24;97694.06;5122444;27;20050;-69
2023/08/24 09:13:27;;;;;;;0.10;0.10;;;;;;;25.43;47.00;97690.81;5119424;27;20054;-68
2023/08/24 09:15:56;;;;;;;0.10;0.10;;;;;;;25.48;46.60;97693.50;5119033;27;20066;-70
2023/08/24 09:18:35;;;;;;;0.10;0.10;;;;;;;25.46;46.75;97687.47;5114043;27;21246;-68
2023/08/24 09:21:09;;;;;;;0.05;0.05;;;;;;;25.62;47.59;97677.25;5116043;27;20478;-68
2023/08/24 09:23:37;;;;;;;0.28;0.03;;;;;;;25.79;46.90;97677.59;5122880;27;20031;-70
2023/08/24 09:26:06;;;;;;;0.00;0.00;;;;;;;25.88;46.33;97678.59;5121023;27;20088;-68
2023/08/24 09:28:35;;;;;;;0.08;0.05;;;;;;;26.07;46.43;97678.63;5120886;27;20109;-68
2023/08/24 09:31:03;;;;;;;0.05;0.05;;;;;;;26.09;45.85;97673.69;5119876;27;20047;-68
2023/08/24 09:33:31;;;;;;;0.00;0.00;;;;;;;26.23;45.84;97669.97;5119268;27;20043;-71
2023/08/24 09:36:01;;;;;;;0.10;0.10;;;;;;;26.41;46.01;97665.63;5121525;27;20043;-68
2023/08/24 09:38:29;;;;;;;0.10;0.10;;;;;;;26.55;43.44;97663.81;5120865;27;20047;-68
2023/08/24 09:40:57;;;;;;;0.10;0.10;;;;;;;26.58;43.56;97662.38;5119810;27;20574;-68
2023/08/24 09:43:26;;;;;;;0.03;0.03;;;;;;;26.46;44.81;97662.03;5116320;27;20553;-68
2023/08/24 09:45:55;;;;;;;0.10;0.10;;;;;;;26.19;44.41;97666.16;5121127;27;20391;-69
2023/08/24 09:48:24;;;;;;;0.10;0.10;;;;;;;26.12;44.29;97660.25;5121536;27;20035;-68
2023/08/24 09:50:57;;;;;;;0.08;0.08;;;;;;;26.19;43.93;97657.97;5119792;27;20113;-69
2023/08/24 09:53:25;;;;;;;0.00;0.00;;;;;;;26.29;44.09;97655.13;5119117;27;20110;-69
2023/08/24 09:55:55;;;;;;;0.00;0.00;;;;;;;26.29;43.17;97651.56;5122319;27;20122;-69
2023/08/24 09:58:25;;;;;;;0.10;0.10;;;;;;;26.29;42.83;97638.69;5119607;27;20044;-69
2023/08/24 10:00:53;;;;;;;0.00;0.00;;;;;;;26.32;42.62;97640.03;5120932;27;20053;-69
2023/08/24 10:03:22;;;;;;;0.00;0.00;;;;;;;26.15;44.48;97635.03;5118015;27;20455;-68
2023/08/24 10:05:53;;;;;;;0.08;0.08;;;;;;;26.20;44.99;97604.03;5119905;27;20057;-69
2023/08/24 10:08:28;;;;;;;0.10;0.10;;;;;;;26.36;45.16;97600.03;5120667;27;20541;-69
2023/08/24 10:10:58;;;;;;;0.00;0.00;;;;;;;26.47;44.90;97595.22;5119408;27;20063;-68
2023/08/24 10:13:34;;;;;;;0.10;0.10;;;;;;;26.39;44.08;97582.97;5119493;27;20470;-68
2023/08/24 10:16:02;;;;;;;0.00;0.00;;;;;;;26.33;43.50;97559.53;5118097;27;20126;-69
2023/08/24 10:18:31;;;;;;;0.10;0.10;;;;;;;26.41;43.30;97563.53;5120963;27;20180;-69
2023/08/24 10:20:59;;;;;;;0.03;0.03;;;;;;;26.28;44.04;97562.34;5116665;27;20510;-68
2023/08/24 10:23:28;;;;;;;0.05;0.05;;;;;;;26.32;44.75;97557.91;5120860;27;20043;-68
2023/08/24 10:25:56;;;;;;;0.20;0.20;;;;;;;26.41;44.29;97552.56;5121480;27;20138;-68
2023/08/24 10:28:25;;;;;;;0.20;0.10;;;;;;;26.48;43.53;97559.28;5118795;27;20405;-69
2023/08/24 10:30:54;;;;;;;0.10;0.10;;;;;;;26.50;42.79;97564.47;5119130;27;20387;-68
2023/08/24 10:33:22;;;;;;;0.00;0.00;;;;;;;26.48;42.33;97562.03;5121431;27;20035;-69
2023/08/24 10:35:50;;;;;;;0.00;0.00;;;;;;;26.50;42.69;97557.06;5118000;27;20135;-69
2023/08/24 10:38:25;;;;;;;0.00;0.00;;;;;;;26.52;42.62;97560.31;5120322;27;20049;-69
2023/08/24 10:40:54;;;;;;;0.00;0.00;;;;;;;26.64;43.13;97554.38;5114651;27;20050;-69
2023/08/24 10:43:23;;;;;;;0.00;0.00;;;;;;;26.64;43.04;97536.03;5120265;27;20507;-70
2023/08/24 10:46:00;;;;;;;0.10;0.10;;;;;;;26.85;42.48;97528.28;5120098;27;20047;-69
2023/08/24 10:48:28;;;;;;;0.10;0.10;;;;;;;27.03;42.08;97534.81;5120272;27;20046;-69
2023/08/24 10:51:19;;;;;;;0.00;0.00;;;;;;;27.19;41.09;97529.88;5121039;27;20122;-69
2023/08/24 10:53:49;;;;;;;0.00;0.00;;;;;;;27.27;41.48;97523.69;5116090;27;20125;-69
2023/08/24 10:56:18;;;;;;;0.10;0.10;;;;;;;27.29;41.44;97510.50;5118867;27;20047;-69
2023/08/24 10:58:47;;;;;;;0.00;0.00;;;;;;;27.36;41.35;97508.97;5119294;27;20041;-69
2023/08/24 11:01:19;;;;;;;0.08;0.00;;;;;;;27.35;41.43;97515.56;5116455;27;20050;-69
2023/08/24 11:03:50;;;;;;;0.10;0.10;;;;;;;27.40;41.68;97500.94;5120056;27;20508;-74
2023/08/24 11:06:19;;;;;;;0.00;0.00;;;;;;;27.32;40.36;97496.16;5120244;27;20048;-69
2023/08/24 11:08:47;;;;;;;0.03;0.03;;;;;;;27.11;40.78;97509.44;5117504;27;20482;-69
2023/08/24 11:11:22;;;;;;;0.00;0.00;;;;;;;27.15;41.03;97502.25;5119526;27;20039;-69
2023/08/24 11:14:14;;;;;;;0.00;0.00;;;;;;;27.10;40.61;97509.78;5120155;27;20088;-68
2023/08/24 11:16:45;;;;;;;0.10;0.10;;;;;;;27.12;41.43;97505.59;5120207;27;20039;-69
2023/08/24 11:19:13;;;;;;;0.00;0.00;;;;;;;27.17;40.54;97513.75;5120602;27;20044;-69
2023/08/24 11:21:42;;;;;;;0.00;0.00;;;;;;;27.19;40.49;97513.44;5119132;27;20036;-68
2023/08/24 11:24:10;;;;;;;0.10;0.10;;;;;;;27.12;40.60;97508.34;5120474;27;20047;-68
2023/08/24 11:26:41;;;;;;;0.10;0.10;;;;;;;27.08;40.33;97501.03;5121649;27;20182;-69
2023/08/24 11:29:08;;;;;;;0.20;0.08;;;;;;;27.01;39.52;97495.94;5117093;27;20050;-68
2023/08/24 11:31:36;;;;;;;0.03;0.03;;;;;;;27.13;39.66;97490.78;5118520;27;20121;-68
2023/08/24 11:34:15;;;;;;;0.00;0.00;;;;;;;27.28;38.72;97486.94;5117802;27;20050;-69
2023/08/24 11:36:44;;;;;;;0.00;0.00;;;;;;;27.42;39.34;97494.03;5118839;27;20043;-69
2023/08/24 11:39:19;;;;;;;0.00;0.00;;;;;;;27.58;39.37;97480.84;5117772;27;20336;-69
2023/08/24 11:41:57;;;;;;;0.05;0.05;;;;;;;27.52;38.47;97467.50;5118898;28;20044;-69